Sandersdale, Massachusetts
Current Conditions -  °F | °C
As of 6:54 PM on Friday 24 Oct 2014 (Local Time) from KORH Reporting Station
Overcast Overcast  
Wind Chill: 41°   Ceiling: 1700
Heat Index: 46°   Visibility: 10mi
Dew Point: 39°   Wind: 12mph
Humidity: 76%   Direction: 300°WNW
Pressure: 29.74"   Gusts: 22mph
Location:  42.0598°N, 72.0339°W
Report Text: KORH 242254Z 30010G19KT 10SM OVC017 08/04 A2974 RMK AO2 SLP075 T00780039
Loading
Personal Weather Stations






























Interactive Weather Map
Tropical Storm Tracking
New forecast layout! Learn more

10-Day Weather Forecast

Advertisements
Track Severe Weather on mobile